createdAt,value
2017-09-27T00:00:02.744Z,42.23
2017-09-27T00:02:32.489Z,43.53
2017-09-27T00:05:02.211Z,42.47
2017-09-27T00:07:31.185Z,46.40
2017-09-27T00:10:00.148Z,47.60
2017-09-27T00:12:29.884Z,46.47
2017-09-27T00:14:58.848Z,44.70
2017-09-27T00:17:27.824Z,43.27
2017-09-27T00:19:56.812Z,41.13
2017-09-27T00:22:25.794Z,44.27
2017-09-27T00:24:54.754Z,47.50
2017-09-27T00:27:24.590Z,39.07
2017-09-27T00:29:53.574Z,46.80
2017-09-27T00:32:22.531Z,43.60
2017-09-27T00:34:51.569Z,46.70
2017-09-27T00:37:20.568Z,47.93
2017-09-27T00:39:49.527Z,47.47
2017-09-27T00:42:18.546Z,44.83
2017-09-27T00:44:47.584Z,43.00
2017-09-27T00:47:17.317Z,45.37
2017-09-27T00:49:47.036Z,41.43
2017-09-27T00:52:16.029Z,43.37
2017-09-27T00:54:45.004Z,46.07
2017-09-27T00:57:14.392Z,47.27
2017-09-27T00:59:43.347Z,46.57
2017-09-27T01:02:12.351Z,48.17
2017-09-27T01:04:41.332Z,50.77
2017-09-27T01:07:11.140Z,56.10
2017-09-27T01:09:40.148Z,51.03
2017-09-27T01:12:09.104Z,55.80
2017-09-27T01:14:38.520Z,57.23
2017-09-27T01:17:07.473Z,52.73
2017-09-27T01:19:36.420Z,55.83
2017-09-27T01:22:05.413Z,54.47
2017-09-27T01:24:34.762Z,49.23
2017-09-27T01:27:03.749Z,48.47
2017-09-27T01:29:32.744Z,45.73
2017-09-27T01:32:02.225Z,52.27
2017-09-27T01:34:31.939Z,46.17
2017-09-27T01:37:01.309Z,49.67
2017-09-27T01:39:30.264Z,48.80
2017-09-27T01:41:59.228Z,48.60
2017-09-27T01:44:28.232Z,53.80
2017-09-27T01:46:57.236Z,43.53
2017-09-27T01:49:26.221Z,46.50
2017-09-27T01:51:55.193Z,44.10
2017-09-27T01:54:24.919Z,47.47
2017-09-27T01:56:53.937Z,48.00
2017-09-27T01:59:22.926Z,46.07
2017-09-27T02:01:51.887Z,52.37
2017-09-27T02:04:20.851Z,52.53
2017-09-27T02:06:49.833Z,53.90
2017-09-27T02:09:18.785Z,52.63
2017-09-27T02:11:47.773Z,50.37
2017-09-27T02:14:16.724Z,59.90
2017-09-27T02:16:46.542Z,50.40
2017-09-27T02:19:16.252Z,49.67
2017-09-27T02:21:46.148Z,50.47
2017-09-27T02:24:15.156Z,53.83
2017-09-27T02:26:44.908Z,49.60
2017-09-27T02:29:13.862Z,53.30
2017-09-27T02:31:43.616Z,50.50
2017-09-27T02:34:13.377Z,47.07
2017-09-27T02:36:43.125Z,48.07
2017-09-27T02:39:12.076Z,54.47
2017-09-27T02:41:41.841Z,52.40
2017-09-27T02:44:10.808Z,51.50
2017-09-27T02:46:39.765Z,56.40
2017-09-27T02:49:09.548Z,54.50
2017-09-27T02:51:38.501Z,50.37
2017-09-27T02:54:07.480Z,55.10
2017-09-27T02:56:36.440Z,47.20
2017-09-27T02:59:05.459Z,56.80
2017-09-27T03:01:34.425Z,54.83
2017-09-27T03:04:03.429Z,50.50
2017-09-27T03:06:32.377Z,45.67
2017-09-27T03:09:01.376Z,45.67
2017-09-27T03:11:30.337Z,49.07
2017-09-27T03:13:59.327Z,45.73
2017-09-27T03:16:28.271Z,44.60
2017-09-27T03:18:57.224Z,49.50
2017-09-27T03:21:26.264Z,43.97
2017-09-27T03:23:55.230Z,44.03
2017-09-27T03:26:24.200Z,44.97
2017-09-27T03:28:53.196Z,43.83
2017-09-27T03:31:22.201Z,44.10
2017-09-27T03:33:51.206Z,45.53
2017-09-27T03:36:20.194Z,40.13
2017-09-27T03:38:49.136Z,36.90
2017-09-27T03:41:18.129Z,37.07
2017-09-27T03:43:47.180Z,35.97
2017-09-27T03:46:16.159Z,37.63
2017-09-27T03:48:45.108Z,37.90
2017-09-27T03:51:14.116Z,33.37
2017-09-27T03:53:43.073Z,37.10
2017-09-27T03:56:12.826Z,37.10
2017-09-27T03:58:41.779Z,31.97
2017-09-27T04:01:10.767Z,33.33
2017-09-27T04:03:40.491Z,29.10
2017-09-27T04:06:09.877Z,39.57
2017-09-27T04:08:39.613Z,36.30
2017-09-27T04:11:08.596Z,35.97
2017-09-27T04:13:37.584Z,32.83
2017-09-27T04:16:06.544Z,32.13
2017-09-27T04:18:35.585Z,40.37
2017-09-27T04:21:04.602Z,33.73
2017-09-27T04:23:33.576Z,31.00
2017-09-27T04:26:02.536Z,33.70
2017-09-27T04:28:32.272Z,37.53
2017-09-27T04:31:01.229Z,40.60
2017-09-27T04:33:31.000Z,39.73
2017-09-27T04:35:59.979Z,43.03
2017-09-27T04:38:28.961Z,37.50
2017-09-27T04:40:57.921Z,41.07
2017-09-27T04:43:27.673Z,45.33
2017-09-27T04:45:56.637Z,45.53
2017-09-27T04:48:25.626Z,48.70
2017-09-27T04:50:54.604Z,59.37
2017-09-27T04:53:23.647Z,48.57
2017-09-27T04:55:53.193Z,50.17
2017-09-27T04:58:22.942Z,63.03
2017-09-27T05:00:52.303Z,53.40
2017-09-27T05:03:21.306Z,50.53
2017-09-27T05:05:51.439Z,53.77
2017-09-27T05:08:20.468Z,51.93
2017-09-27T05:10:49.425Z,55.07
2017-09-27T05:13:19.484Z,57.23
2017-09-27T05:15:49.692Z,61.80
2017-09-27T05:18:18.707Z,64.50
2017-09-27T05:20:47.663Z,61.83
2017-09-27T05:23:17.689Z,60.90
2017-09-27T05:25:46.640Z,55.03
2017-09-27T05:28:16.384Z,61.40
2017-09-27T05:30:45.908Z,63.50
2017-09-27T05:33:14.908Z,53.53
2017-09-27T05:35:43.954Z,58.83
2017-09-27T05:38:12.921Z,65.63
2017-09-27T05:40:41.899Z,60.77
2017-09-27T05:43:10.897Z,59.87
2017-09-27T05:45:39.854Z,57.90
2017-09-27T05:48:08.895Z,56.80
2017-09-27T05:50:38.608Z,59.87
2017-09-27T05:53:08.381Z,52.13
2017-09-27T05:55:37.715Z,59.87
2017-09-27T05:58:06.693Z,65.07
2017-09-27T06:00:35.667Z,56.40
2017-09-27T06:03:04.650Z,59.77
2017-09-27T06:05:33.610Z,54.30
2017-09-27T06:08:02.681Z,60.00
2017-09-27T06:10:32.164Z,58.37
2017-09-27T06:13:01.734Z,55.63
2017-09-27T06:15:30.688Z,64.73
2017-09-27T06:18:00.423Z,63.17
2017-09-27T06:20:29.453Z,57.87
2017-09-27T06:22:58.432Z,62.47
2017-09-27T06:25:27.408Z,57.37
2017-09-27T06:27:56.373Z,55.77
2017-09-27T06:30:26.053Z,63.70
2017-09-27T06:32:55.815Z,63.93
2017-09-27T06:35:24.776Z,62.57
2017-09-27T06:37:53.864Z,67.27
2017-09-27T06:40:23.199Z,64.33
2017-09-27T06:42:52.238Z,57.47
2017-09-27T06:45:21.199Z,59.83
2017-09-27T06:47:50.165Z,56.10
2017-09-27T06:50:19.860Z,54.40
2017-09-27T06:52:49.586Z,62.83
2017-09-27T06:55:18.584Z,60.53
2017-09-27T06:57:47.653Z,55.93
2017-09-27T07:00:16.685Z,60.27
2017-09-27T07:02:45.640Z,59.57
2017-09-27T07:05:16.411Z,51.67
2017-09-27T07:07:46.239Z,52.67
2017-09-27T07:10:16.006Z,54.43
2017-09-27T07:12:45.001Z,50.70
2017-09-27T07:15:14.608Z,49.27
2017-09-27T07:17:43.586Z,60.07
2017-09-27T07:20:13.310Z,55.80
2017-09-27T07:22:42.685Z,56.00
2017-09-27T07:25:12.431Z,51.43
2017-09-27T07:27:41.414Z,53.20
2017-09-27T07:30:10.372Z,54.67
2017-09-27T07:32:40.127Z,53.27
2017-09-27T07:35:09.083Z,52.50
2017-09-27T07:37:39.705Z,54.50
2017-09-27T07:40:09.454Z,53.97
2017-09-27T07:42:39.097Z,53.23
2017-09-27T07:45:08.092Z,52.37
2017-09-27T07:47:37.085Z,49.67
2017-09-27T07:50:06.049Z,53.43
2017-09-27T07:52:35.902Z,51.50
2017-09-27T07:55:05.642Z,50.37
2017-09-27T07:57:34.624Z,45.27
2017-09-27T08:00:04.346Z,48.70
2017-09-27T08:02:33.327Z,53.13
2017-09-27T08:05:03.030Z,47.03
2017-09-27T08:07:32.766Z,55.37
2017-09-27T08:10:01.821Z,45.53
2017-09-27T08:12:30.792Z,56.23
2017-09-27T08:14:59.876Z,45.80
2017-09-27T08:17:28.829Z,49.00
2017-09-27T08:19:57.805Z,50.30
2017-09-27T08:22:27.574Z,48.30
2017-09-27T08:24:56.532Z,46.87
2017-09-27T08:27:25.508Z,47.83
2017-09-27T08:29:55.658Z,41.43
2017-09-27T08:32:25.778Z,44.20
2017-09-27T08:34:54.782Z,44.83
2017-09-27T08:37:23.920Z,44.37
2017-09-27T08:39:52.857Z,41.70
2017-09-27T08:42:21.856Z,39.50
2017-09-27T08:44:50.824Z,45.13
2017-09-27T08:47:19.816Z,37.73
2017-09-27T08:49:48.780Z,42.17
2017-09-27T08:52:19.105Z,47.00
2017-09-27T08:54:48.876Z,36.53
2017-09-27T08:57:17.858Z,43.53
2017-09-27T08:59:47.612Z,38.10
2017-09-27T09:02:17.364Z,38.50
2017-09-27T09:04:46.419Z,35.97
2017-09-27T09:07:15.791Z,36.40
2017-09-27T09:09:44.812Z,38.20
2017-09-27T09:12:14.632Z,35.97
2017-09-27T09:14:43.608Z,37.80
2017-09-27T09:17:13.324Z,38.60
2017-09-27T09:19:43.068Z,40.97
2017-09-27T09:22:15.157Z,37.30
2017-09-27T09:24:44.361Z,34.57
2017-09-27T09:27:13.303Z,35.20
2017-09-27T09:29:42.299Z,34.57
2017-09-27T09:32:11.257Z,36.80
2017-09-27T09:34:40.235Z,35.37
2017-09-27T09:37:09.397Z,32.57
2017-09-27T09:39:38.366Z,35.30
2017-09-27T09:42:07.334Z,34.27
2017-09-27T09:44:37.190Z,34.40
2017-09-27T09:47:06.168Z,33.97
2017-09-27T09:49:35.166Z,31.30
2017-09-27T09:52:04.144Z,32.10
2017-09-27T09:54:33.114Z,35.13
2017-09-27T09:57:02.944Z,33.67
2017-09-27T09:59:31.922Z,34.07
2017-09-27T10:02:01.651Z,37.30
2017-09-27T10:04:31.806Z,34.20
2017-09-27T10:07:01.532Z,32.67
2017-09-27T10:09:30.515Z,33.27
2017-09-27T10:11:59.532Z,33.87
2017-09-27T10:14:28.515Z,36.40
2017-09-27T10:16:57.472Z,33.70
2017-09-27T10:19:26.445Z,34.03
2017-09-27T10:21:55.397Z,33.17
2017-09-27T10:24:24.353Z,33.90
2017-09-27T10:26:53.457Z,31.20
2017-09-27T10:29:22.436Z,31.57
2017-09-27T10:31:51.889Z,34.50
2017-09-27T10:34:21.736Z,31.40
2017-09-27T10:36:50.691Z,33.73
2017-09-27T10:39:20.455Z,37.07
2017-09-27T10:41:49.503Z,33.33
2017-09-27T10:44:18.492Z,35.40
2017-09-27T10:46:48.235Z,30.90
2017-09-27T10:49:17.220Z,37.47
2017-09-27T10:51:46.171Z,34.67
2017-09-27T10:54:15.558Z,32.80
2017-09-27T10:56:44.506Z,31.00
2017-09-27T10:59:13.519Z,29.47
2017-09-27T11:01:45.786Z,30.47
2017-09-27T11:04:14.767Z,27.60
2017-09-27T11:06:43.730Z,29.77
2017-09-27T11:09:13.533Z,26.73
2017-09-27T11:11:43.294Z,31.10
2017-09-27T11:14:12.251Z,32.33
2017-09-27T11:16:41.988Z,30.80
2017-09-27T11:19:11.701Z,30.23
2017-09-27T11:21:40.697Z,29.70
2017-09-27T11:24:09.661Z,29.07
2017-09-27T11:26:39.378Z,30.83
2017-09-27T11:29:08.775Z,31.40
2017-09-27T11:31:37.733Z,27.03
2017-09-27T11:34:07.841Z,30.23
2017-09-27T11:36:36.833Z,31.90
2017-09-27T11:39:06.105Z,30.97
2017-09-27T11:41:35.088Z,29.23
2017-09-27T11:44:04.100Z,30.80
2017-09-27T11:46:33.953Z,31.07
2017-09-27T11:49:03.665Z,30.80
2017-09-27T11:51:33.415Z,30.63
2017-09-27T11:54:02.471Z,30.03
2017-09-27T11:56:32.298Z,30.10
2017-09-27T11:59:01.662Z,31.43
2017-09-27T12:01:30.662Z,29.15
2017-09-27T12:03:59.667Z,28.37
2017-09-27T12:06:30.309Z,31.37
2017-09-27T12:08:59.280Z,29.57
2017-09-27T12:11:29.037Z,27.93
2017-09-27T12:13:58.003Z,31.97
2017-09-27T12:16:27.026Z,29.60
2017-09-27T12:18:56.857Z,29.53
2017-09-27T12:21:25.870Z,30.07
2017-09-27T12:23:54.851Z,26.33
2017-09-27T12:26:24.024Z,26.07
2017-09-27T12:28:52.987Z,30.87
2017-09-27T12:31:22.733Z,27.10
2017-09-27T12:33:51.741Z,29.73
2017-09-27T12:36:21.469Z,29.73
2017-09-27T12:38:50.443Z,30.37
2017-09-27T12:41:19.431Z,31.43
2017-09-27T12:43:48.789Z,29.90
2017-09-27T12:46:17.756Z,29.70
2017-09-27T12:48:47.528Z,30.03
2017-09-27T12:51:16.543Z,31.20
2017-09-27T12:53:45.543Z,33.60
2017-09-27T12:56:14.915Z,32.90
2017-09-27T12:58:43.865Z,29.00
2017-09-27T13:01:12.840Z,29.50
2017-09-27T13:03:42.625Z,33.37
2017-09-27T13:06:11.615Z,29.27
2017-09-27T13:08:40.651Z,30.77
2017-09-27T13:11:09.708Z,27.50
2017-09-27T13:13:38.672Z,30.17
2017-09-27T13:16:07.620Z,31.60
2017-09-27T13:18:36.704Z,30.90
2017-09-27T13:21:05.702Z,28.50
2017-09-27T13:23:35.439Z,31.90
2017-09-27T13:26:04.400Z,30.70
2017-09-27T13:28:34.122Z,29.13
2017-09-27T13:31:03.166Z,33.83
2017-09-27T13:33:32.160Z,32.53
2017-09-27T13:36:01.133Z,30.50
2017-09-27T13:38:30.868Z,33.00
2017-09-27T13:40:59.910Z,26.80
2017-09-27T13:43:28.936Z,28.70
2017-09-27T13:45:57.936Z,27.90
2017-09-27T13:48:26.912Z,27.70
2017-09-27T13:50:55.879Z,30.27
2017-09-27T13:53:24.843Z,32.20
2017-09-27T13:55:54.892Z,29.80
2017-09-27T13:58:24.246Z,30.80
2017-09-27T14:00:53.204Z,29.03
2017-09-27T14:03:22.205Z,29.57
2017-09-27T14:05:51.239Z,30.50
2017-09-27T14:08:20.988Z,30.70
2017-09-27T14:10:49.984Z,30.40
2017-09-27T14:13:18.955Z,30.90
2017-09-27T14:15:47.917Z,33.40
2017-09-27T14:18:17.754Z,27.73
2017-09-27T14:20:46.729Z,30.77
2017-09-27T14:23:16.098Z,30.40
2017-09-27T14:25:45.099Z,29.93
2017-09-27T14:28:14.124Z,32.70
2017-09-27T14:30:43.125Z,34.17
2017-09-27T14:33:12.178Z,33.23
2017-09-27T14:35:41.137Z,32.30
2017-09-27T14:38:10.149Z,32.97
2017-09-27T14:40:39.133Z,39.00
2017-09-27T14:43:08.221Z,32.37
2017-09-27T14:45:37.206Z,36.33
2017-09-27T14:48:06.182Z,35.37
2017-09-27T14:50:35.205Z,33.87
2017-09-27T14:53:04.207Z,34.87
2017-09-27T14:55:33.196Z,39.20
2017-09-27T14:58:02.550Z,33.27
2017-09-27T15:00:31.521Z,32.57
2017-09-27T15:03:01.270Z,33.83
2017-09-27T15:05:30.250Z,35.93
2017-09-27T15:07:59.212Z,35.27
2017-09-27T15:10:29.012Z,35.57
2017-09-27T15:12:58.822Z,30.87
2017-09-27T15:15:27.819Z,35.20
2017-09-27T15:17:56.796Z,32.07
2017-09-27T15:20:26.141Z,32.30
2017-09-27T15:22:55.099Z,34.70
2017-09-27T15:25:24.573Z,34.57
2017-09-27T15:27:53.536Z,38.73
2017-09-27T15:30:23.377Z,40.20
2017-09-27T15:32:54.066Z,40.50
2017-09-27T15:35:23.074Z,40.80
2017-09-27T15:37:52.057Z,40.90
2017-09-27T15:40:21.005Z,38.33
2017-09-27T15:42:50.032Z,36.67
2017-09-27T15:45:19.826Z,41.10
2017-09-27T15:47:49.544Z,44.43
2017-09-27T15:50:19.353Z,42.00
2017-09-27T15:52:49.173Z,40.30
2017-09-27T15:55:20.090Z,42.83
2017-09-27T15:57:49.073Z,38.20
2017-09-27T16:00:18.045Z,42.30
2017-09-27T16:02:47.805Z,39.63
2017-09-27T16:05:16.781Z,41.90
2017-09-27T16:07:47.263Z,41.07
2017-09-27T16:10:17.020Z,38.30
2017-09-27T16:12:46.777Z,37.47
2017-09-27T16:15:16.506Z,39.83
2017-09-27T16:17:46.258Z,41.70
2017-09-27T16:20:15.999Z,40.50
2017-09-27T16:22:45.413Z,37.33
2017-09-27T16:25:15.144Z,42.77
2017-09-27T16:27:44.156Z,40.50
2017-09-27T16:30:13.124Z,35.43
2017-09-27T16:32:43.221Z,45.33
2017-09-27T16:35:13.701Z,36.93
2017-09-27T16:37:43.489Z,37.60
2017-09-27T16:40:13.549Z,37.40
2017-09-27T16:42:42.541Z,37.60
2017-09-27T16:45:11.953Z,43.73
2017-09-27T16:47:40.938Z,41.90
2017-09-27T16:50:11.536Z,42.40
2017-09-27T16:52:42.013Z,51.27
2017-09-27T16:55:11.539Z,50.27
2017-09-27T16:57:41.282Z,46.57
2017-09-27T17:00:11.250Z,42.07
2017-09-27T17:02:41.498Z,45.80
2017-09-27T17:05:10.996Z,48.67
2017-09-27T17:07:40.377Z,45.93
2017-09-27T17:10:09.353Z,47.53
2017-09-27T17:12:38.340Z,46.17
2017-09-27T17:15:07.308Z,47.80
2017-09-27T17:17:36.321Z,44.53
2017-09-27T17:20:05.708Z,46.37
2017-09-27T17:22:34.833Z,47.97
2017-09-27T17:25:04.544Z,47.83
2017-09-27T17:27:33.947Z,49.70
2017-09-27T17:30:02.920Z,48.00
2017-09-27T17:32:31.944Z,45.27
2017-09-27T17:35:00.933Z,49.00
2017-09-27T17:37:30.297Z,51.53
2017-09-27T17:39:59.280Z,46.00
2017-09-27T17:42:29.028Z,49.93
2017-09-27T17:44:58.066Z,48.40
2017-09-27T17:47:27.813Z,48.17
2017-09-27T17:49:56.784Z,44.13
2017-09-27T17:52:26.512Z,47.30
2017-09-27T17:54:55.953Z,45.30
2017-09-27T17:57:25.757Z,45.30
2017-09-27T17:59:54.740Z,49.23
2017-09-27T18:02:23.736Z,49.63
2017-09-27T18:07:55.670Z,48.77
2017-09-27T18:10:41.352Z,49.50
2017-09-27T18:13:30.051Z,44.57
2017-09-27T18:16:14.678Z,49.27
2017-09-27T18:18:44.900Z,46.47
2017-09-27T18:21:13.954Z,47.53
2017-09-27T18:23:43.690Z,44.87
2017-09-27T18:26:13.427Z,46.83
2017-09-27T18:28:43.552Z,46.37
2017-09-27T18:31:12.516Z,50.10
2017-09-27T18:33:42.270Z,48.90
2017-09-27T18:36:11.267Z,49.80
2017-09-27T18:38:40.970Z,48.13
2017-09-27T18:41:10.463Z,47.57
2017-09-27T18:43:41.108Z,46.10
2017-09-27T18:46:10.084Z,54.50
2017-09-27T18:48:39.088Z,48.57
2017-09-27T18:51:08.979Z,46.30
2017-09-27T18:53:37.958Z,52.30
2017-09-27T18:56:06.946Z,51.30
2017-09-27T18:58:36.690Z,53.43
2017-09-27T19:01:05.721Z,62.90
2017-09-27T19:03:34.726Z,49.60
2017-09-27T19:06:03.902Z,61.97
2017-09-27T19:08:32.908Z,56.47
2017-09-27T19:11:01.910Z,51.27
2017-09-27T19:13:31.273Z,54.70
2017-09-27T19:16:01.054Z,50.03
2017-09-27T19:18:30.026Z,57.73
2017-09-27T19:20:59.445Z,47.80
2017-09-27T19:23:28.450Z,55.20
2017-09-27T19:25:57.423Z,48.67
2017-09-27T19:28:26.521Z,48.53
2017-09-27T19:30:55.754Z,56.50
2017-09-27T19:33:24.741Z,52.33
2017-09-27T19:35:53.701Z,57.47
2017-09-27T19:38:23.471Z,58.93
2017-09-27T19:40:52.470Z,49.30
2017-09-27T19:43:21.455Z,52.33
2017-09-27T19:45:51.263Z,55.20
2017-09-27T19:48:20.289Z,53.97
2017-09-27T19:50:50.462Z,51.07
2017-09-27T19:53:19.495Z,61.23
2017-09-27T19:55:49.225Z,57.23
2017-09-27T19:58:18.199Z,54.13
2017-09-27T20:00:47.210Z,59.00
2017-09-27T20:03:16.183Z,58.90
2017-09-27T20:05:45.940Z,58.30
2017-09-27T20:08:14.974Z,51.37
2017-09-27T20:10:44.795Z,56.60
2017-09-27T20:13:14.545Z,60.57
2017-09-27T20:15:44.464Z,58.40
2017-09-27T20:18:13.435Z,56.57
2017-09-27T20:20:42.446Z,55.30
2017-09-27T20:23:11.412Z,50.70
2017-09-27T20:25:41.880Z,52.83
2017-09-27T20:28:11.777Z,53.17
2017-09-27T20:30:40.765Z,53.83
2017-09-27T20:33:10.142Z,58.40
2017-09-27T20:35:39.576Z,55.47
2017-09-27T20:38:08.621Z,46.63
2017-09-27T20:40:38.381Z,45.47
2017-09-27T20:43:07.350Z,46.33
2017-09-27T20:45:37.634Z,57.80
2017-09-27T20:48:07.437Z,53.40
2017-09-27T20:50:37.639Z,49.97
2017-09-27T20:53:07.396Z,46.27
2017-09-27T20:55:36.380Z,50.10
2017-09-27T20:58:05.537Z,51.10
2017-09-27T21:00:34.527Z,49.00
2017-09-27T21:03:03.496Z,52.33
2017-09-27T21:05:32.554Z,48.07
2017-09-27T21:08:01.933Z,47.30
2017-09-27T21:10:30.944Z,47.87
2017-09-27T21:13:00.705Z,50.40
2017-09-27T21:15:29.681Z,54.20
2017-09-27T21:17:58.645Z,50.00
2017-09-27T21:20:27.650Z,51.07
2017-09-27T21:22:56.606Z,53.73
2017-09-27T21:25:25.661Z,59.67
2017-09-27T21:27:55.040Z,66.13
2017-09-27T21:30:24.275Z,53.70
2017-09-27T21:32:53.561Z,55.20
2017-09-27T21:35:22.557Z,55.47
2017-09-27T21:37:51.506Z,49.83
2017-09-27T21:40:20.521Z,61.90
2017-09-27T21:42:49.489Z,53.97
2017-09-27T21:45:18.869Z,56.50
2017-09-27T21:47:48.608Z,54.93
2017-09-27T21:50:17.593Z,60.93
2017-09-27T21:52:46.568Z,56.60
2017-09-27T21:55:16.377Z,46.33
2017-09-27T21:57:46.104Z,53.77
2017-09-27T22:00:15.097Z,52.40
2017-09-27T22:02:44.817Z,48.67
2017-09-27T22:05:14.341Z,48.27
2017-09-27T22:07:43.696Z,52.80
2017-09-27T22:10:13.871Z,45.80
2017-09-27T22:12:42.847Z,52.77
2017-09-27T22:15:11.822Z,45.43
2017-09-27T22:17:40.801Z,49.07
2017-09-27T22:20:10.152Z,49.87
2017-09-27T22:22:39.900Z,48.13
2017-09-27T22:25:09.620Z,49.27
2017-09-27T22:27:38.711Z,48.27
2017-09-27T22:30:08.442Z,43.07
2017-09-27T22:32:37.414Z,42.70
2017-09-27T22:35:07.141Z,46.30
2017-09-27T22:37:36.123Z,56.77
2017-09-27T22:40:05.613Z,54.07
2017-09-27T22:42:35.355Z,55.03
2017-09-27T22:45:04.308Z,56.17
2017-09-27T22:47:34.156Z,47.93
2017-09-27T22:50:03.495Z,49.57
2017-09-27T22:52:32.483Z,51.93
2017-09-27T22:55:01.473Z,53.37
2017-09-27T22:57:30.455Z,43.83
2017-09-27T22:59:59.938Z,48.90
2017-09-27T23:02:28.958Z,52.77
2017-09-27T23:04:57.914Z,52.37
2017-09-27T23:07:28.044Z,51.10
2017-09-27T23:09:57.049Z,48.13
2017-09-27T23:12:26.403Z,51.40
2017-09-27T23:14:56.155Z,47.93
2017-09-27T23:17:25.100Z,55.47
2017-09-27T23:19:54.671Z,52.60
2017-09-27T23:22:35.554Z,54.37
2017-09-27T23:25:05.338Z,53.27
2017-09-27T23:27:34.701Z,51.90
2017-09-27T23:30:04.072Z,50.10
2017-09-27T23:32:33.028Z,48.60
2017-09-27T23:35:02.082Z,52.60
2017-09-27T23:37:31.820Z,50.90
2017-09-27T23:40:01.560Z,54.87
2017-09-27T23:42:32.024Z,58.80
2017-09-27T23:45:01.884Z,55.37
2017-09-27T23:47:30.831Z,62.93
2017-09-27T23:50:00.589Z,71.83
2017-09-27T23:52:29.583Z,73.07
2017-09-27T23:54:59.208Z,80.23
2017-09-27T23:57:28.221Z,71.00
2017-09-27T23:59:58.353Z,66.90
